sensor_id;sensor_type;location;lat;lon;timestamp;P1;durP1;ratioP1;P2;durP2;ratioP2
17207;SDS011;8720;48.488;9.202;2023-01-24T00:00:40;24.80;;;15.43;;
17207;SDS011;8720;48.488;9.202;2023-01-24T00:03:07;22.40;;;16.90;;
17207;SDS011;8720;48.488;9.202;2023-01-24T00:05:38;21.30;;;16.43;;
17207;SDS011;8720;48.488;9.202;2023-01-24T00:08:06;20.37;;;14.60;;
17207;SDS011;8720;48.488;9.202;2023-01-24T00:10:34;21.87;;;15.83;;
17207;SDS011;8720;48.488;9.202;2023-01-24T00:13:02;25.40;;;16.90;;
17207;SDS011;8720;48.488;9.202;2023-01-24T00:15:30;22.17;;;15.80;;
17207;SDS011;8720;48.488;9.202;2023-01-24T00:17:58;27.40;;;17.87;;
17207;SDS011;8720;48.488;9.202;2023-01-24T00:20:25;22.40;;;16.27;;
17207;SDS011;8720;48.488;9.202;2023-01-24T00:22:54;21.83;;;15.83;;
17207;SDS011;8720;48.488;9.202;2023-01-24T00:25:21;22.80;;;14.93;;
17207;SDS011;8720;48.488;9.202;2023-01-24T00:27:49;25.20;;;16.20;;
17207;SDS011;8720;48.488;9.202;2023-01-24T00:30:16;23.00;;;15.83;;
17207;SDS011;8720;48.488;9.202;2023-01-24T00:32:44;19.77;;;14.43;;
17207;SDS011;8720;48.488;9.202;2023-01-24T00:35:11;21.83;;;14.53;;
17207;SDS011;8720;48.488;9.202;2023-01-24T00:37:39;29.17;;;16.53;;
17207;SDS011;8720;48.488;9.202;2023-01-24T00:40:08;25.30;;;16.60;;
17207;SDS011;8720;48.488;9.202;2023-01-24T00:42:37;23.57;;;15.83;;
17207;SDS011;8720;48.488;9.202;2023-01-24T00:45:04;25.97;;;17.43;;
17207;SDS011;8720;48.488;9.202;2023-01-24T00:47:33;24.67;;;16.40;;
17207;SDS011;8720;48.488;9.202;2023-01-24T00:50:00;22.30;;;15.10;;
17207;SDS011;8720;48.488;9.202;2023-01-24T00:52:28;23.07;;;16.20;;
17207;SDS011;8720;48.488;9.202;2023-01-24T00:54:55;23.30;;;16.60;;
17207;SDS011;8720;48.488;9.202;2023-01-24T00:57:24;24.00;;;16.20;;
17207;SDS011;8720;48.488;9.202;2023-01-24T00:59:51;22.33;;;15.73;;
17207;SDS011;8720;48.488;9.202;2023-01-24T01:02:18;24.50;;;16.20;;
17207;SDS011;8720;48.488;9.202;2023-01-24T01:04:46;26.23;;;14.50;;
17207;SDS011;8720;48.488;9.202;2023-01-24T01:07:13;25.93;;;15.90;;
17207;SDS011;8720;48.488;9.202;2023-01-24T01:09:40;23.73;;;15.40;;
17207;SDS011;8720;48.488;9.202;2023-01-24T01:12:08;24.10;;;16.03;;
17207;SDS011;8720;48.488;9.202;2023-01-24T01:14:36;21.17;;;14.70;;
17207;SDS011;8720;48.488;9.202;2023-01-24T01:17:04;22.13;;;15.90;;
17207;SDS011;8720;48.488;9.202;2023-01-24T01:19:31;22.10;;;15.73;;
17207;SDS011;8720;48.488;9.202;2023-01-24T01:21:58;21.90;;;15.23;;
17207;SDS011;8720;48.488;9.202;2023-01-24T01:24:25;23.97;;;16.07;;
17207;SDS011;8720;48.488;9.202;2023-01-24T01:26:52;26.97;;;15.97;;
17207;SDS011;8720;48.488;9.202;2023-01-24T01:29:20;22.53;;;14.93;;
17207;SDS011;8720;48.488;9.202;2023-01-24T01:31:48;23.30;;;16.07;;
17207;SDS011;8720;48.488;9.202;2023-01-24T01:34:16;21.83;;;14.97;;
17207;SDS011;8720;48.488;9.202;2023-01-24T01:36:44;22.97;;;15.23;;
17207;SDS011;8720;48.488;9.202;2023-01-24T01:39:11;22.23;;;15.63;;
17207;SDS011;8720;48.488;9.202;2023-01-24T01:41:38;26.00;;;15.07;;
17207;SDS011;8720;48.488;9.202;2023-01-24T01:44:16;24.00;;;15.60;;
17207;SDS011;8720;48.488;9.202;2023-01-24T01:47:04;23.57;;;15.37;;
17207;SDS011;8720;48.488;9.202;2023-01-24T01:49:42;22.20;;;15.43;;
17207;SDS011;8720;48.488;9.202;2023-01-24T01:52:20;21.10;;;14.83;;
17207;SDS011;8720;48.488;9.202;2023-01-24T01:54:53;23.47;;;15.80;;
17207;SDS011;8720;48.488;9.202;2023-01-24T01:57:27;21.10;;;14.30;;
17207;SDS011;8720;48.488;9.202;2023-01-24T01:59:59;23.47;;;15.77;;
17207;SDS011;8720;48.488;9.202;2023-01-24T02:02:39;24.13;;;15.80;;
17207;SDS011;8720;48.488;9.202;2023-01-24T02:05:15;24.27;;;15.50;;
17207;SDS011;8720;48.488;9.202;2023-01-24T02:07:50;23.40;;;15.87;;
17207;SDS011;8720;48.488;9.202;2023-01-24T02:10:25;22.77;;;15.77;;
17207;SDS011;8720;48.488;9.202;2023-01-24T02:13:14;24.10;;;15.77;;
17207;SDS011;8720;48.488;9.202;2023-01-24T02:15:42;25.03;;;16.77;;
17207;SDS011;8720;48.488;9.202;2023-01-24T02:18:30;24.60;;;16.30;;
17207;SDS011;8720;48.488;9.202;2023-01-24T02:20:59;22.60;;;15.00;;
17207;SDS011;8720;48.488;9.202;2023-01-24T02:23:30;23.80;;;15.43;;
17207;SDS011;8720;48.488;9.202;2023-01-24T02:26:16;23.90;;;15.67;;
17207;SDS011;8720;48.488;9.202;2023-01-24T02:28:49;26.33;;;15.83;;
17207;SDS011;8720;48.488;9.202;2023-01-24T02:31:21;24.27;;;16.00;;
17207;SDS011;8720;48.488;9.202;2023-01-24T02:33:50;25.30;;;16.20;;
17207;SDS011;8720;48.488;9.202;2023-01-24T02:36:19;22.47;;;15.70;;
17207;SDS011;8720;48.488;9.202;2023-01-24T02:38:53;20.67;;;14.63;;
17207;SDS011;8720;48.488;9.202;2023-01-24T02:41:30;26.43;;;15.87;;
17207;SDS011;8720;48.488;9.202;2023-01-24T02:44:07;24.67;;;15.87;;
17207;SDS011;8720;48.488;9.202;2023-01-24T02:46:38;24.87;;;16.53;;
17207;SDS011;8720;48.488;9.202;2023-01-24T02:49:09;23.83;;;16.00;;
17207;SDS011;8720;48.488;9.202;2023-01-24T02:51:37;21.53;;;14.80;;
17207;SDS011;8720;48.488;9.202;2023-01-24T02:54:22;22.40;;;14.60;;
17207;SDS011;8720;48.488;9.202;2023-01-24T02:56:51;24.73;;;16.20;;
17207;SDS011;8720;48.488;9.202;2023-01-24T02:59:36;27.30;;;16.30;;
17207;SDS011;8720;48.488;9.202;2023-01-24T03:02:04;25.77;;;15.93;;
17207;SDS011;8720;48.488;9.202;2023-01-24T03:04:32;26.47;;;16.97;;
17207;SDS011;8720;48.488;9.202;2023-01-24T03:06:59;27.73;;;17.67;;
17207;SDS011;8720;48.488;9.202;2023-01-24T03:09:27;26.40;;;16.33;;
17207;SDS011;8720;48.488;9.202;2023-01-24T03:12:03;26.23;;;16.80;;
17207;SDS011;8720;48.488;9.202;2023-01-24T03:14:54;25.57;;;15.33;;
17207;SDS011;8720;48.488;9.202;2023-01-24T03:17:41;25.50;;;16.27;;
17207;SDS011;8720;48.488;9.202;2023-01-24T03:20:27;26.40;;;15.93;;
17207;SDS011;8720;48.488;9.202;2023-01-24T03:23:12;26.20;;;16.50;;
17207;SDS011;8720;48.488;9.202;2023-01-24T03:25:57;26.30;;;16.53;;
17207;SDS011;8720;48.488;9.202;2023-01-24T03:28:45;26.10;;;17.10;;
17207;SDS011;8720;48.488;9.202;2023-01-24T03:31:30;24.40;;;16.20;;
17207;SDS011;8720;48.488;9.202;2023-01-24T03:34:16;26.33;;;16.67;;
17207;SDS011;8720;48.488;9.202;2023-01-24T03:36:56;26.13;;;16.73;;
17207;SDS011;8720;48.488;9.202;2023-01-24T03:39:25;29.47;;;17.13;;
17207;SDS011;8720;48.488;9.202;2023-01-24T03:42:29;26.50;;;17.07;;
17207;SDS011;8720;48.488;9.202;2023-01-24T03:44:58;29.57;;;17.33;;
17207;SDS011;8720;48.488;9.202;2023-01-24T03:47:25;27.50;;;17.27;;
17207;SDS011;8720;48.488;9.202;2023-01-24T03:49:52;25.10;;;16.97;;
17207;SDS011;8720;48.488;9.202;2023-01-24T03:52:37;28.70;;;18.17;;
17207;SDS011;8720;48.488;9.202;2023-01-24T03:55:05;28.03;;;17.87;;
17207;SDS011;8720;48.488;9.202;2023-01-24T03:57:34;28.00;;;17.47;;
17207;SDS011;8720;48.488;9.202;2023-01-24T04:00:08;28.93;;;17.43;;
17207;SDS011;8720;48.488;9.202;2023-01-24T04:02:42;28.90;;;17.47;;
17207;SDS011;8720;48.488;9.202;2023-01-24T04:05:14;27.23;;;17.00;;
17207;SDS011;8720;48.488;9.202;2023-01-24T04:07:43;30.17;;;18.77;;
17207;SDS011;8720;48.488;9.202;2023-01-24T04:10:10;25.73;;;17.27;;
17207;SDS011;8720;48.488;9.202;2023-01-24T04:12:41;27.90;;;17.90;;
17207;SDS011;8720;48.488;9.202;2023-01-24T04:15:14;32.00;;;18.07;;
17207;SDS011;8720;48.488;9.202;2023-01-24T04:17:50;29.33;;;18.53;;
17207;SDS011;8720;48.488;9.202;2023-01-24T04:20:17;28.30;;;16.97;;
17207;SDS011;8720;48.488;9.202;2023-01-24T04:22:46;26.47;;;16.70;;
17207;SDS011;8720;48.488;9.202;2023-01-24T04:25:13;29.60;;;17.97;;
17207;SDS011;8720;48.488;9.202;2023-01-24T04:27:44;25.77;;;15.83;;
17207;SDS011;8720;48.488;9.202;2023-01-24T04:32:49;30.00;;;18.27;;
17207;SDS011;8720;48.488;9.202;2023-01-24T04:35:22;29.90;;;17.60;;
17207;SDS011;8720;48.488;9.202;2023-01-24T04:37:59;29.60;;;17.07;;
17207;SDS011;8720;48.488;9.202;2023-01-24T04:40:58;29.97;;;17.30;;
17207;SDS011;8720;48.488;9.202;2023-01-24T04:43:32;30.50;;;17.30;;
17207;SDS011;8720;48.488;9.202;2023-01-24T04:46:00;28.00;;;16.97;;
17207;SDS011;8720;48.488;9.202;2023-01-24T04:49:00;27.43;;;16.60;;
17207;SDS011;8720;48.488;9.202;2023-01-24T04:51:36;25.77;;;17.50;;
17207;SDS011;8720;48.488;9.202;2023-01-24T04:54:08;24.17;;;15.20;;
17207;SDS011;8720;48.488;9.202;2023-01-24T04:56:36;28.07;;;16.37;;
17207;SDS011;8720;48.488;9.202;2023-01-24T04:59:05;29.40;;;17.47;;
17207;SDS011;8720;48.488;9.202;2023-01-24T05:01:35;24.93;;;16.00;;
17207;SDS011;8720;48.488;9.202;2023-01-24T05:04:10;27.23;;;16.60;;
17207;SDS011;8720;48.488;9.202;2023-01-24T05:06:37;25.47;;;16.20;;
17207;SDS011;8720;48.488;9.202;2023-01-24T05:09:06;32.97;;;18.60;;
17207;SDS011;8720;48.488;9.202;2023-01-24T05:11:48;28.17;;;18.13;;
17207;SDS011;8720;48.488;9.202;2023-01-24T05:14:15;27.50;;;18.00;;
17207;SDS011;8720;48.488;9.202;2023-01-24T05:16:44;34.90;;;18.60;;
17207;SDS011;8720;48.488;9.202;2023-01-24T05:19:12;25.63;;;16.00;;
17207;SDS011;8720;48.488;9.202;2023-01-24T05:21:39;28.83;;;17.70;;
17207;SDS011;8720;48.488;9.202;2023-01-24T05:24:07;26.23;;;16.97;;
17207;SDS011;8720;48.488;9.202;2023-01-24T05:26:37;30.33;;;17.90;;
17207;SDS011;8720;48.488;9.202;2023-01-24T05:29:06;28.80;;;17.07;;
17207;SDS011;8720;48.488;9.202;2023-01-24T05:31:34;25.97;;;16.33;;
17207;SDS011;8720;48.488;9.202;2023-01-24T05:34:04;27.27;;;17.27;;
17207;SDS011;8720;48.488;9.202;2023-01-24T05:36:31;28.87;;;19.00;;
17207;SDS011;8720;48.488;9.202;2023-01-24T05:39:00;29.80;;;18.13;;
17207;SDS011;8720;48.488;9.202;2023-01-24T05:41:30;27.60;;;18.60;;
17207;SDS011;8720;48.488;9.202;2023-01-24T05:43:58;31.33;;;19.10;;
17207;SDS011;8720;48.488;9.202;2023-01-24T05:46:30;27.40;;;19.13;;
17207;SDS011;8720;48.488;9.202;2023-01-24T05:49:13;28.57;;;18.23;;
17207;SDS011;8720;48.488;9.202;2023-01-24T05:51:42;29.33;;;19.50;;
17207;SDS011;8720;48.488;9.202;2023-01-24T05:54:12;30.20;;;21.17;;
17207;SDS011;8720;48.488;9.202;2023-01-24T05:57:09;28.90;;;18.73;;
17207;SDS011;8720;48.488;9.202;2023-01-24T05:59:54;31.60;;;18.80;;
17207;SDS011;8720;48.488;9.202;2023-01-24T06:02:22;28.40;;;17.77;;
17207;SDS011;8720;48.488;9.202;2023-01-24T06:04:51;27.07;;;18.40;;
17207;SDS011;8720;48.488;9.202;2023-01-24T06:07:18;34.43;;;20.13;;
17207;SDS011;8720;48.488;9.202;2023-01-24T06:09:45;32.10;;;19.17;;
17207;SDS011;8720;48.488;9.202;2023-01-24T06:12:13;34.67;;;22.07;;
17207;SDS011;8720;48.488;9.202;2023-01-24T06:14:42;34.77;;;20.97;;
17207;SDS011;8720;48.488;9.202;2023-01-24T06:17:09;32.73;;;19.70;;
17207;SDS011;8720;48.488;9.202;2023-01-24T06:19:37;29.43;;;20.50;;
17207;SDS011;8720;48.488;9.202;2023-01-24T06:22:10;32.23;;;21.30;;
17207;SDS011;8720;48.488;9.202;2023-01-24T06:24:48;28.63;;;19.37;;
17207;SDS011;8720;48.488;9.202;2023-01-24T06:27:28;28.80;;;18.00;;
17207;SDS011;8720;48.488;9.202;2023-01-24T06:29:56;31.83;;;19.03;;
17207;SDS011;8720;48.488;9.202;2023-01-24T06:32:26;33.77;;;19.60;;
17207;SDS011;8720;48.488;9.202;2023-01-24T06:35:09;29.43;;;19.67;;
17207;SDS011;8720;48.488;9.202;2023-01-24T06:37:52;30.80;;;22.53;;
17207;SDS011;8720;48.488;9.202;2023-01-24T06:40:23;35.47;;;22.37;;
17207;SDS011;8720;48.488;9.202;2023-01-24T06:42:51;30.60;;;19.67;;
17207;SDS011;8720;48.488;9.202;2023-01-24T06:45:20;29.00;;;19.60;;
17207;SDS011;8720;48.488;9.202;2023-01-24T06:47:47;31.37;;;21.07;;
17207;SDS011;8720;48.488;9.202;2023-01-24T06:50:15;30.87;;;19.57;;
17207;SDS011;8720;48.488;9.202;2023-01-24T06:52:45;30.97;;;19.40;;
17207;SDS011;8720;48.488;9.202;2023-01-24T06:55:15;30.80;;;19.20;;
17207;SDS011;8720;48.488;9.202;2023-01-24T06:57:43;29.40;;;19.40;;
17207;SDS011;8720;48.488;9.202;2023-01-24T07:00:12;34.67;;;20.70;;
17207;SDS011;8720;48.488;9.202;2023-01-24T07:02:40;31.80;;;21.67;;
17207;SDS011;8720;48.488;9.202;2023-01-24T07:05:08;32.50;;;22.27;;
17207;SDS011;8720;48.488;9.202;2023-01-24T07:07:35;32.05;;;21.63;;
17207;SDS011;8720;48.488;9.202;2023-01-24T07:10:03;27.97;;;18.83;;
17207;SDS011;8720;48.488;9.202;2023-01-24T07:12:33;37.80;;;22.67;;
17207;SDS011;8720;48.488;9.202;2023-01-24T07:15:00;33.87;;;21.17;;
17207;SDS011;8720;48.488;9.202;2023-01-24T07:17:28;29.27;;;20.17;;
17207;SDS011;8720;48.488;9.202;2023-01-24T07:19:56;34.80;;;21.10;;
17207;SDS011;8720;48.488;9.202;2023-01-24T07:22:24;26.37;;;18.83;;
17207;SDS011;8720;48.488;9.202;2023-01-24T07:24:52;28.97;;;18.37;;
17207;SDS011;8720;48.488;9.202;2023-01-24T07:27:20;28.23;;;18.00;;
17207;SDS011;8720;48.488;9.202;2023-01-24T07:29:52;28.53;;;18.83;;
17207;SDS011;8720;48.488;9.202;2023-01-24T07:32:19;28.87;;;18.60;;
17207;SDS011;8720;48.488;9.202;2023-01-24T07:34:50;29.60;;;19.03;;
17207;SDS011;8720;48.488;9.202;2023-01-24T07:37:17;30.23;;;19.10;;
17207;SDS011;8720;48.488;9.202;2023-01-24T07:39:46;25.90;;;17.87;;
17207;SDS011;8720;48.488;9.202;2023-01-24T07:42:14;29.90;;;18.70;;
17207;SDS011;8720;48.488;9.202;2023-01-24T07:44:41;33.23;;;19.50;;
17207;SDS011;8720;48.488;9.202;2023-01-24T07:47:10;28.37;;;19.43;;
17207;SDS011;8720;48.488;9.202;2023-01-24T07:49:37;30.00;;;19.60;;
17207;SDS011;8720;48.488;9.202;2023-01-24T07:52:04;30.30;;;18.93;;
17207;SDS011;8720;48.488;9.202;2023-01-24T07:54:32;30.17;;;17.80;;
17207;SDS011;8720;48.488;9.202;2023-01-24T07:57:00;29.50;;;19.20;;
17207;SDS011;8720;48.488;9.202;2023-01-24T07:59:27;28.47;;;18.60;;
17207;SDS011;8720;48.488;9.202;2023-01-24T08:01:54;26.13;;;18.60;;
17207;SDS011;8720;48.488;9.202;2023-01-24T08:04:23;24.70;;;16.33;;
17207;SDS011;8720;48.488;9.202;2023-01-24T08:06:50;28.23;;;18.43;;
17207;SDS011;8720;48.488;9.202;2023-01-24T08:09:35;27.40;;;19.00;;
17207;SDS011;8720;48.488;9.202;2023-01-24T08:12:02;27.10;;;17.23;;
17207;SDS011;8720;48.488;9.202;2023-01-24T08:14:30;29.67;;;18.13;;
17207;SDS011;8720;48.488;9.202;2023-01-24T08:16:57;27.63;;;17.90;;
17207;SDS011;8720;48.488;9.202;2023-01-24T08:19:26;27.70;;;18.33;;
17207;SDS011;8720;48.488;9.202;2023-01-24T08:21:53;25.90;;;17.60;;
17207;SDS011;8720;48.488;9.202;2023-01-24T08:24:21;28.80;;;18.00;;
17207;SDS011;8720;48.488;9.202;2023-01-24T08:26:48;30.97;;;17.20;;
17207;SDS011;8720;48.488;9.202;2023-01-24T08:29:16;25.37;;;16.80;;
17207;SDS011;8720;48.488;9.202;2023-01-24T08:31:43;26.40;;;17.33;;
17207;SDS011;8720;48.488;9.202;2023-01-24T08:34:13;25.27;;;16.27;;
17207;SDS011;8720;48.488;9.202;2023-01-24T08:36:42;21.37;;;15.47;;
17207;SDS011;8720;48.488;9.202;2023-01-24T08:39:09;23.17;;;16.17;;
17207;SDS011;8720;48.488;9.202;2023-01-24T08:41:37;24.90;;;16.60;;
17207;SDS011;8720;48.488;9.202;2023-01-24T08:44:04;21.83;;;15.73;;
17207;SDS011;8720;48.488;9.202;2023-01-24T08:46:32;21.70;;;15.97;;
17207;SDS011;8720;48.488;9.202;2023-01-24T08:48:59;23.87;;;14.50;;
17207;SDS011;8720;48.488;9.202;2023-01-24T08:51:29;22.50;;;15.97;;
17207;SDS011;8720;48.488;9.202;2023-01-24T08:53:57;24.20;;;16.77;;
17207;SDS011;8720;48.488;9.202;2023-01-24T08:56:25;23.63;;;15.87;;
17207;SDS011;8720;48.488;9.202;2023-01-24T08:58:52;21.30;;;16.13;;
17207;SDS011;8720;48.488;9.202;2023-01-24T09:01:19;22.30;;;16.90;;
17207;SDS011;8720;48.488;9.202;2023-01-24T09:03:46;22.70;;;15.93;;
17207;SDS011;8720;48.488;9.202;2023-01-24T09:06:15;22.70;;;15.57;;
17207;SDS011;8720;48.488;9.202;2023-01-24T09:08:42;23.30;;;14.97;;
17207;SDS011;8720;48.488;9.202;2023-01-24T09:11:11;21.30;;;15.00;;
17207;SDS011;8720;48.488;9.202;2023-01-24T09:13:38;21.87;;;14.90;;
17207;SDS011;8720;48.488;9.202;2023-01-24T09:16:06;24.50;;;17.03;;
17207;SDS011;8720;48.488;9.202;2023-01-24T09:18:33;22.80;;;15.70;;
17207;SDS011;8720;48.488;9.202;2023-01-24T09:21:01;23.90;;;15.33;;
17207;SDS011;8720;48.488;9.202;2023-01-24T09:23:29;24.37;;;15.50;;
17207;SDS011;8720;48.488;9.202;2023-01-24T09:25:57;27.23;;;17.07;;
17207;SDS011;8720;48.488;9.202;2023-01-24T09:28:25;26.13;;;16.70;;
17207;SDS011;8720;48.488;9.202;2023-01-24T09:30:53;25.23;;;16.50;;
17207;SDS011;8720;48.488;9.202;2023-01-24T09:33:20;27.47;;;15.83;;
17207;SDS011;8720;48.488;9.202;2023-01-24T09:35:52;23.40;;;15.40;;
17207;SDS011;8720;48.488;9.202;2023-01-24T09:38:22;20.60;;;14.40;;
17207;SDS011;8720;48.488;9.202;2023-01-24T09:40:53;21.33;;;15.13;;
17207;SDS011;8720;48.488;9.202;2023-01-24T09:43:44;22.80;;;15.20;;
17207;SDS011;8720;48.488;9.202;2023-01-24T09:46:21;21.03;;;14.17;;
17207;SDS011;8720;48.488;9.202;2023-01-24T09:49:05;19.77;;;14.03;;
17207;SDS011;8720;48.488;9.202;2023-01-24T09:51:43;21.90;;;14.50;;
17207;SDS011;8720;48.488;9.202;2023-01-24T09:57:06;20.13;;;14.17;;
17207;SDS011;8720;48.488;9.202;2023-01-24T09:59:47;23.27;;;15.33;;
17207;SDS011;8720;48.488;9.202;2023-01-24T10:02:21;21.83;;;15.37;;
17207;SDS011;8720;48.488;9.202;2023-01-24T10:04:56;20.60;;;14.20;;
17207;SDS011;8720;48.488;9.202;2023-01-24T10:07:37;20.77;;;14.67;;
17207;SDS011;8720;48.488;9.202;2023-01-24T10:10:45;23.00;;;16.13;;
17207;SDS011;8720;48.488;9.202;2023-01-24T10:13:26;20.10;;;14.53;;
17207;SDS011;8720;48.488;9.202;2023-01-24T10:16:44;20.60;;;14.70;;
17207;SDS011;8720;48.488;9.202;2023-01-24T10:19:48;23.83;;;14.90;;
17207;SDS011;8720;48.488;9.202;2023-01-24T10:22:46;22.33;;;15.33;;
17207;SDS011;8720;48.488;9.202;2023-01-24T10:25:30;22.33;;;14.93;;
17207;SDS011;8720;48.488;9.202;2023-01-24T10:28:13;18.87;;;13.50;;
17207;SDS011;8720;48.488;9.202;2023-01-24T10:31:04;23.93;;;15.40;;
17207;SDS011;8720;48.488;9.202;2023-01-24T10:33:41;21.47;;;14.23;;
17207;SDS011;8720;48.488;9.202;2023-01-24T10:36:13;24.77;;;14.00;;
17207;SDS011;8720;48.488;9.202;2023-01-24T10:38:50;21.90;;;16.40;;
17207;SDS011;8720;48.488;9.202;2023-01-24T10:41:19;24.80;;;16.13;;
17207;SDS011;8720;48.488;9.202;2023-01-24T10:43:50;21.73;;;14.77;;
17207;SDS011;8720;48.488;9.202;2023-01-24T10:49:38;21.43;;;15.20;;
17207;SDS011;8720;48.488;9.202;2023-01-24T10:52:11;22.40;;;15.10;;
17207;SDS011;8720;48.488;9.202;2023-01-24T10:54:42;23.13;;;14.73;;
17207;SDS011;8720;48.488;9.202;2023-01-24T10:57:17;21.17;;;14.37;;
17207;SDS011;8720;48.488;9.202;2023-01-24T11:02:55;20.67;;;13.97;;
17207;SDS011;8720;48.488;9.202;2023-01-24T11:05:35;21.23;;;13.43;;
17207;SDS011;8720;48.488;9.202;2023-01-24T11:08:15;17.17;;;13.33;;
17207;SDS011;8720;48.488;9.202;2023-01-24T11:10:46;20.40;;;13.10;;
17207;SDS011;8720;48.488;9.202;2023-01-24T11:13:25;19.93;;;14.47;;
17207;SDS011;8720;48.488;9.202;2023-01-24T11:16:00;23.90;;;13.97;;
17207;SDS011;8720;48.488;9.202;2023-01-24T11:18:43;21.13;;;14.80;;
17207;SDS011;8720;48.488;9.202;2023-01-24T11:21:16;20.00;;;13.73;;
17207;SDS011;8720;48.488;9.202;2023-01-24T11:23:45;18.80;;;13.47;;
17207;SDS011;8720;48.488;9.202;2023-01-24T11:26:28;19.60;;;13.00;;
17207;SDS011;8720;48.488;9.202;2023-01-24T11:28:58;20.63;;;15.63;;
17207;SDS011;8720;48.488;9.202;2023-01-24T11:31:29;21.93;;;16.10;;
17207;SDS011;8720;48.488;9.202;2023-01-24T11:37:02;21.40;;;14.07;;
17207;SDS011;8720;48.488;9.202;2023-01-24T11:39:44;18.23;;;14.13;;
17207;SDS011;8720;48.488;9.202;2023-01-24T11:42:25;22.10;;;16.47;;
17207;SDS011;8720;48.488;9.202;2023-01-24T11:45:04;20.73;;;16.00;;
17207;SDS011;8720;48.488;9.202;2023-01-24T11:47:51;19.00;;;13.90;;
17207;SDS011;8720;48.488;9.202;2023-01-24T11:50:36;19.43;;;14.33;;
17207;SDS011;8720;48.488;9.202;2023-01-24T11:53:29;19.37;;;14.30;;
17207;SDS011;8720;48.488;9.202;2023-01-24T11:56:32;22.47;;;17.17;;
17207;SDS011;8720;48.488;9.202;2023-01-24T11:59:19;22.67;;;15.60;;
17207;SDS011;8720;48.488;9.202;2023-01-24T12:02:16;23.17;;;14.83;;
17207;SDS011;8720;48.488;9.202;2023-01-24T12:07:57;25.07;;;17.93;;
17207;SDS011;8720;48.488;9.202;2023-01-24T12:10:47;23.70;;;16.10;;
17207;SDS011;8720;48.488;9.202;2023-01-24T12:13:30;24.80;;;17.43;;
17207;SDS011;8720;48.488;9.202;2023-01-24T12:16:13;19.67;;;13.87;;
17207;SDS011;8720;48.488;9.202;2023-01-24T12:19:07;18.77;;;14.50;;
17207;SDS011;8720;48.488;9.202;2023-01-24T12:22:10;17.90;;;14.77;;
17207;SDS011;8720;48.488;9.202;2023-01-24T12:24:43;17.80;;;13.23;;
17207;SDS011;8720;48.488;9.202;2023-01-24T12:27:21;16.00;;;12.30;;
17207;SDS011;8720;48.488;9.202;2023-01-24T12:29:55;18.30;;;12.67;;
17207;SDS011;8720;48.488;9.202;2023-01-24T12:32:30;18.27;;;12.40;;
17207;SDS011;8720;48.488;9.202;2023-01-24T12:35:10;17.07;;;13.17;;
17207;SDS011;8720;48.488;9.202;2023-01-24T12:37:48;18.77;;;13.70;;
17207;SDS011;8720;48.488;9.202;2023-01-24T12:40:28;16.50;;;13.27;;
17207;SDS011;8720;48.488;9.202;2023-01-24T12:43:15;16.23;;;13.80;;
17207;SDS011;8720;48.488;9.202;2023-01-24T12:45:52;16.40;;;12.70;;
17207;SDS011;8720;48.488;9.202;2023-01-24T12:48:34;17.97;;;13.70;;
17207;SDS011;8720;48.488;9.202;2023-01-24T12:51:14;16.77;;;11.73;;
17207;SDS011;8720;48.488;9.202;2023-01-24T12:53:53;15.50;;;12.70;;
17207;SDS011;8720;48.488;9.202;2023-01-24T12:56:31;16.73;;;12.63;;
17207;SDS011;8720;48.488;9.202;2023-01-24T12:59:10;17.23;;;12.50;;
17207;SDS011;8720;48.488;9.202;2023-01-24T13:01:49;16.10;;;12.30;;
17207;SDS011;8720;48.488;9.202;2023-01-24T13:04:54;15.30;;;12.43;;
17207;SDS011;8720;48.488;9.202;2023-01-24T13:07:57;16.03;;;11.60;;
17207;SDS011;8720;48.488;9.202;2023-01-24T13:10:51;19.07;;;12.00;;
17207;SDS011;8720;48.488;9.202;2023-01-24T13:13:32;15.47;;;11.77;;
17207;SDS011;8720;48.488;9.202;2023-01-24T13:16:19;17.63;;;12.33;;
17207;SDS011;8720;48.488;9.202;2023-01-24T13:19:13;16.17;;;12.00;;
17207;SDS011;8720;48.488;9.202;2023-01-24T13:21:55;16.40;;;11.97;;
17207;SDS011;8720;48.488;9.202;2023-01-24T13:24:48;15.23;;;12.10;;
17207;SDS011;8720;48.488;9.202;2023-01-24T13:27:34;13.70;;;10.73;;
17207;SDS011;8720;48.488;9.202;2023-01-24T13:30:17;15.73;;;12.07;;
17207;SDS011;8720;48.488;9.202;2023-01-24T13:33:07;18.00;;;13.73;;
17207;SDS011;8720;48.488;9.202;2023-01-24T13:35:46;16.10;;;12.37;;
17207;SDS011;8720;48.488;9.202;2023-01-24T13:38:17;14.30;;;10.93;;
17207;SDS011;8720;48.488;9.202;2023-01-24T13:40:57;15.17;;;11.53;;
17207;SDS011;8720;48.488;9.202;2023-01-24T13:52:44;15.47;;;11.40;;
17207;SDS011;8720;48.488;9.202;2023-01-24T13:58:28;18.40;;;11.50;;
17207;SDS011;8720;48.488;9.202;2023-01-24T14:00:59;16.37;;;11.63;;
17207;SDS011;8720;48.488;9.202;2023-01-24T14:03:29;14.47;;;10.80;;
17207;SDS011;8720;48.488;9.202;2023-01-24T14:06:11;17.13;;;11.97;;
17207;SDS011;8720;48.488;9.202;2023-01-24T14:08:41;15.93;;;11.90;;
17207;SDS011;8720;48.488;9.202;2023-01-24T14:11:18;15.63;;;11.00;;
17207;SDS011;8720;48.488;9.202;2023-01-24T14:17:47;14.77;;;10.90;;
17207;SDS011;8720;48.488;9.202;2023-01-24T14:20:19;14.00;;;11.40;;
17207;SDS011;8720;48.488;9.202;2023-01-24T14:23:00;13.50;;;10.87;;
17207;SDS011;8720;48.488;9.202;2023-01-24T14:25:39;16.80;;;11.50;;
17207;SDS011;8720;48.488;9.202;2023-01-24T14:28:17;19.47;;;12.20;;
17207;SDS011;8720;48.488;9.202;2023-01-24T14:30:52;17.63;;;12.53;;
17207;SDS011;8720;48.488;9.202;2023-01-24T14:33:28;14.57;;;10.50;;
17207;SDS011;8720;48.488;9.202;2023-01-24T14:36:10;16.50;;;12.40;;
17207;SDS011;8720;48.488;9.202;2023-01-24T14:38:52;13.60;;;10.93;;
17207;SDS011;8720;48.488;9.202;2023-01-24T14:41:38;14.83;;;11.37;;
17207;SDS011;8720;48.488;9.202;2023-01-24T14:44:15;14.90;;;11.63;;
17207;SDS011;8720;48.488;9.202;2023-01-24T14:46:52;14.43;;;11.50;;
17207;SDS011;8720;48.488;9.202;2023-01-24T14:49:26;15.17;;;12.20;;
17207;SDS011;8720;48.488;9.202;2023-01-24T14:51:59;16.80;;;11.30;;
17207;SDS011;8720;48.488;9.202;2023-01-24T14:54:44;16.80;;;12.10;;
17207;SDS011;8720;48.488;9.202;2023-01-24T14:57:20;15.77;;;12.03;;
17207;SDS011;8720;48.488;9.202;2023-01-24T14:59:59;15.03;;;11.20;;
17207;SDS011;8720;48.488;9.202;2023-01-24T15:02:33;15.70;;;11.70;;
17207;SDS011;8720;48.488;9.202;2023-01-24T15:05:02;16.87;;;12.70;;
17207;SDS011;8720;48.488;9.202;2023-01-24T15:07:49;16.33;;;12.77;;
17207;SDS011;8720;48.488;9.202;2023-01-24T15:10:20;16.70;;;12.87;;
17207;SDS011;8720;48.488;9.202;2023-01-24T15:12:51;13.70;;;10.77;;
17207;SDS011;8720;48.488;9.202;2023-01-24T15:15:21;16.60;;;11.63;;
17207;SDS011;8720;48.488;9.202;2023-01-24T15:17:50;17.37;;;12.67;;
17207;SDS011;8720;48.488;9.202;2023-01-24T15:20:26;17.03;;;11.50;;
17207;SDS011;8720;48.488;9.202;2023-01-24T15:22:57;17.03;;;12.13;;
17207;SDS011;8720;48.488;9.202;2023-01-24T15:25:30;14.93;;;12.10;;
17207;SDS011;8720;48.488;9.202;2023-01-24T15:28:08;16.47;;;11.97;;
17207;SDS011;8720;48.488;9.202;2023-01-24T15:30:49;14.90;;;11.10;;
17207;SDS011;8720;48.488;9.202;2023-01-24T15:33:18;16.80;;;12.33;;
17207;SDS011;8720;48.488;9.202;2023-01-24T15:35:46;17.47;;;14.07;;
17207;SDS011;8720;48.488;9.202;2023-01-24T15:38:19;19.50;;;14.57;;
17207;SDS011;8720;48.488;9.202;2023-01-24T15:40:54;19.27;;;13.37;;
17207;SDS011;8720;48.488;9.202;2023-01-24T15:43:41;19.60;;;13.47;;
17207;SDS011;8720;48.488;9.202;2023-01-24T15:49:27;14.57;;;11.70;;
17207;SDS011;8720;48.488;9.202;2023-01-24T15:51:58;19.03;;;13.83;;